createdAt,value
2018-12-11T00:06:57.000Z,1013.169
2018-12-11T00:16:57.000Z,1013.382
2018-12-11T00:26:57.000Z,1013.235
2018-12-11T00:36:57.000Z,1013.157
2018-12-11T00:46:57.000Z,1013.101
2018-12-11T00:56:57.000Z,1013.116
2018-12-11T01:06:57.000Z,1013.141
2018-12-11T01:16:57.000Z,1013.261
2018-12-11T01:26:57.000Z,1013.181
2018-12-11T01:36:57.000Z,1013.258
2018-12-11T01:46:57.000Z,1013.246
2018-12-11T01:56:58.000Z,1013.151
2018-12-11T02:06:57.000Z,1013.242
2018-12-11T02:16:57.000Z,1013.171
2018-12-11T02:26:57.000Z,1013.305
2018-12-11T02:36:58.000Z,1013.321
2018-12-11T02:46:57.000Z,1013.363
2018-12-11T02:56:57.000Z,1013.365
2018-12-11T03:06:57.000Z,1013.344
2018-12-11T03:16:57.000Z,1013.323
2018-12-11T03:26:57.000Z,1013.313
2018-12-11T03:46:57.000Z,1013.356
2018-12-11T03:56:58.000Z,1013.339
2018-12-11T04:06:58.000Z,1013.246
2018-12-11T04:16:58.000Z,1013.176
2018-12-11T04:26:58.000Z,1013.155
2018-12-11T04:36:58.000Z,1013.193
2018-12-11T04:46:58.000Z,1013.305
2018-12-11T04:56:59.000Z,1013.361
2018-12-11T05:06:58.000Z,1013.313
2018-12-11T05:16:58.000Z,1013.351
2018-12-11T05:26:58.000Z,1013.356
2018-12-11T05:36:58.000Z,1013.319
2018-12-11T05:46:58.000Z,1013.292
2018-12-11T05:56:58.000Z,1013.254
2018-12-11T06:06:58.000Z,1013.35
2018-12-11T06:16:58.000Z,1013.424
2018-12-11T06:26:58.000Z,1013.467
2018-12-11T06:36:58.000Z,1013.515
2018-12-11T06:46:58.000Z,1013.573
2018-12-11T06:56:58.000Z,1013.608
2018-12-11T07:06:58.000Z,1013.635
2018-12-11T07:16:58.000Z,1013.67
2018-12-11T07:26:58.000Z,1013.764
2018-12-11T07:36:58.000Z,1013.773
2018-12-11T07:46:58.000Z,1013.949
2018-12-11T07:56:58.000Z,1014.008
2018-12-11T08:06:58.000Z,1013.996
2018-12-11T08:16:58.000Z,1014.019
2018-12-11T08:26:58.000Z,1014.062
2018-12-11T08:36:58.000Z,1013.98
2018-12-11T08:46:58.000Z,1014.071
2018-12-11T08:56:58.000Z,1014.016
2018-12-11T09:06:58.000Z,1014.093
2018-12-11T09:16:58.000Z,1014.178
2018-12-11T09:26:58.000Z,1014.254
2018-12-11T09:36:58.000Z,1014.254
2018-12-11T09:46:58.000Z,1014.227
2018-12-11T09:56:58.000Z,1014.484
2018-12-11T10:06:58.000Z,1014.511
2018-12-11T10:16:58.000Z,1014.341
2018-12-11T10:26:58.000Z,1014.324
2018-12-11T10:36:58.000Z,1014.329
2018-12-11T10:46:58.000Z,1014.287
2018-12-11T10:56:58.000Z,1014.324
2018-12-11T11:06:58.000Z,1014.3
2018-12-11T11:16:58.000Z,1014.264
2018-12-11T11:26:58.000Z,1014.272
2018-12-11T11:36:58.000Z,1014.312
2018-12-11T11:46:59.000Z,1014.234
2018-12-11T11:56:59.000Z,1014.211
2018-12-11T12:06:58.000Z,1014.248
2018-12-11T12:16:59.000Z,1014.255
2018-12-11T12:26:59.000Z,1014.238
2018-12-11T12:36:59.000Z,1014.16
2018-12-11T12:46:59.000Z,1014.216
2018-12-11T12:56:59.000Z,1014.203
2018-12-11T13:06:59.000Z,1014.143
2018-12-11T13:16:59.000Z,1014.122
2018-12-11T13:26:59.000Z,1014.125
2018-12-11T13:36:59.000Z,1014.208
2018-12-11T13:47:01.000Z,1014.228
2018-12-11T13:56:59.000Z,1014.307
2018-12-11T14:07:00.000Z,1014.33
2018-12-11T14:16:59.000Z,1014.37
2018-12-11T14:26:59.000Z,1014.365
2018-12-11T14:36:59.000Z,1014.34
2018-12-11T14:46:59.000Z,1014.306
2018-12-11T14:56:59.000Z,1014.316
2018-12-11T15:06:59.000Z,1014.398
2018-12-11T15:16:59.000Z,1014.426
2018-12-11T15:26:59.000Z,1014.422
2018-12-11T15:36:59.000Z,1014.484
2018-12-11T15:46:59.000Z,1014.507
2018-12-11T15:56:59.000Z,1014.556
2018-12-11T16:06:59.000Z,1014.607
2018-12-11T16:16:59.000Z,1014.707
2018-12-11T16:26:59.000Z,1014.727
2018-12-11T16:36:59.000Z,1014.731
2018-12-11T16:57:00.000Z,1014.828
2018-12-11T17:26:59.000Z,1015.031
2018-12-11T17:37:01.000Z,1015.14
2018-12-11T17:46:59.000Z,1015.122
2018-12-11T17:56:59.000Z,1015.221
2018-12-11T18:06:59.000Z,1015.346
2018-12-11T18:16:59.000Z,1015.372
2018-12-11T18:26:59.000Z,1015.419
2018-12-11T18:47:01.000Z,1015.588
2018-12-11T18:56:59.000Z,1015.601
2018-12-11T19:06:59.000Z,1015.522
2018-12-11T19:16:59.000Z,1015.42
2018-12-11T19:26:59.000Z,1015.46
2018-12-11T19:36:59.000Z,1015.533
2018-12-11T19:46:59.000Z,1015.613
2018-12-11T19:56:59.000Z,1015.569
2018-12-11T20:06:59.000Z,1015.608
2018-12-11T20:16:59.000Z,1015.753
2018-12-11T20:27:00.000Z,1015.788
2018-12-11T20:37:00.000Z,1015.86
2018-12-11T20:47:00.000Z,1015.907
2018-12-11T20:57:00.000Z,1015.957
2018-12-11T21:07:00.000Z,1015.933
2018-12-11T21:17:00.000Z,1015.939
2018-12-11T21:27:00.000Z,1015.908
2018-12-11T21:37:00.000Z,1015.996
2018-12-11T21:47:00.000Z,1016.027
2018-12-11T21:57:00.000Z,1016.145
2018-12-11T22:17:00.000Z,1016.035
2018-12-11T22:27:00.000Z,1016.146
2018-12-11T22:37:00.000Z,1016.162
2018-12-11T22:47:00.000Z,1016.237
2018-12-11T22:57:00.000Z,1016.254
2018-12-11T23:07:00.000Z,1016.332
2018-12-11T23:17:00.000Z,1016.302
2018-12-11T23:27:00.000Z,1016.395
2018-12-11T23:37:00.000Z,1016.444
2018-12-11T23:47:00.000Z,1016.508
2018-12-11T23:57:01.000Z,1016.451
